sensor_id;sensor_type;location;lat;lon;timestamp;temperature;humidity
2539;DHT22;1280;49.760;9.664;2023-01-16T00:00:11;7.30;72.80
2539;DHT22;1280;49.760;9.664;2023-01-16T00:02:39;7.30;72.70
2539;DHT22;1280;49.760;9.664;2023-01-16T00:05:07;7.30;72.80
2539;DHT22;1280;49.760;9.664;2023-01-16T00:07:35;7.30;72.70
2539;DHT22;1280;49.760;9.664;2023-01-16T00:10:04;7.30;72.80
2539;DHT22;1280;49.760;9.664;2023-01-16T00:12:34;7.30;72.80
2539;DHT22;1280;49.760;9.664;2023-01-16T00:15:02;7.30;72.90
2539;DHT22;1280;49.760;9.664;2023-01-16T00:17:30;7.40;72.90
2539;DHT22;1280;49.760;9.664;2023-01-16T00:19:58;7.40;72.80
2539;DHT22;1280;49.760;9.664;2023-01-16T00:22:26;7.40;72.80
2539;DHT22;1280;49.760;9.664;2023-01-16T00:24:54;7.40;72.90
2539;DHT22;1280;49.760;9.664;2023-01-16T00:27:22;7.40;72.60
2539;DHT22;1280;49.760;9.664;2023-01-16T00:29:51;7.30;72.70
2539;DHT22;1280;49.760;9.664;2023-01-16T00:32:19;7.30;72.80
2539;DHT22;1280;49.760;9.664;2023-01-16T00:34:47;7.30;72.70
2539;DHT22;1280;49.760;9.664;2023-01-16T00:37:15;7.30;72.80
2539;DHT22;1280;49.760;9.664;2023-01-16T00:39:43;7.30;72.70
2539;DHT22;1280;49.760;9.664;2023-01-16T00:42:11;7.30;72.80
2539;DHT22;1280;49.760;9.664;2023-01-16T00:44:39;7.30;72.90
2539;DHT22;1280;49.760;9.664;2023-01-16T00:47:08;7.30;73.00
2539;DHT22;1280;49.760;9.664;2023-01-16T00:49:38;7.30;72.80
2539;DHT22;1280;49.760;9.664;2023-01-16T00:52:05;7.30;72.80
2539;DHT22;1280;49.760;9.664;2023-01-16T00:54:33;7.30;72.90
2539;DHT22;1280;49.760;9.664;2023-01-16T00:57:01;7.30;72.90
2539;DHT22;1280;49.760;9.664;2023-01-16T00:59:29;7.30;72.90
2539;DHT22;1280;49.760;9.664;2023-01-16T01:01:57;7.30;72.90
2539;DHT22;1280;49.760;9.664;2023-01-16T01:04:27;7.30;72.90
2539;DHT22;1280;49.760;9.664;2023-01-16T01:06:56;7.30;72.90
2539;DHT22;1280;49.760;9.664;2023-01-16T01:09:24;7.30;72.90
2539;DHT22;1280;49.760;9.664;2023-01-16T01:11:52;7.30;72.90
2539;DHT22;1280;49.760;9.664;2023-01-16T01:14:20;7.40;72.90
2539;DHT22;1280;49.760;9.664;2023-01-16T01:16:48;7.40;72.90
2539;DHT22;1280;49.760;9.664;2023-01-16T01:19:16;7.40;73.00
2539;DHT22;1280;49.760;9.664;2023-01-16T01:21:45;7.40;73.00
2539;DHT22;1280;49.760;9.664;2023-01-16T01:24:13;7.40;72.80
2539;DHT22;1280;49.760;9.664;2023-01-16T01:26:41;7.50;72.90
2539;DHT22;1280;49.760;9.664;2023-01-16T01:29:09;7.50;72.70
2539;DHT22;1280;49.760;9.664;2023-01-16T01:31:37;7.40;72.60
2539;DHT22;1280;49.760;9.664;2023-01-16T01:34:05;7.40;72.70
2539;DHT22;1280;49.760;9.664;2023-01-16T01:36:33;7.40;72.60
2539;DHT22;1280;49.760;9.664;2023-01-16T01:39:02;7.40;72.70
2539;DHT22;1280;49.760;9.664;2023-01-16T01:41:30;7.40;72.80
2539;DHT22;1280;49.760;9.664;2023-01-16T01:43:58;7.40;72.70
2539;DHT22;1280;49.760;9.664;2023-01-16T01:46:34;7.40;72.50
2539;DHT22;1280;49.760;9.664;2023-01-16T01:49:21;7.40;72.60
2539;DHT22;1280;49.760;9.664;2023-01-16T01:51:57;7.40;72.60
2539;DHT22;1280;49.760;9.664;2023-01-16T01:54:45;7.40;72.60
2539;DHT22;1280;49.760;9.664;2023-01-16T01:57:25;7.40;72.70
2539;DHT22;1280;49.760;9.664;2023-01-16T02:00:03;7.40;72.60
2539;DHT22;1280;49.760;9.664;2023-01-16T02:02:48;7.40;72.50
2539;DHT22;1280;49.760;9.664;2023-01-16T02:05:25;7.40;72.50
2539;DHT22;1280;49.760;9.664;2023-01-16T02:08:13;7.40;72.50
2539;DHT22;1280;49.760;9.664;2023-01-16T02:10:50;7.30;72.30
2539;DHT22;1280;49.760;9.664;2023-01-16T02:14:08;7.30;72.40
2539;DHT22;1280;49.760;9.664;2023-01-16T02:16:59;7.30;72.50
2539;DHT22;1280;49.760;9.664;2023-01-16T02:20:01;7.30;72.50
2539;DHT22;1280;49.760;9.664;2023-01-16T02:29:17;7.20;72.40
2539;DHT22;1280;49.760;9.664;2023-01-16T02:32:11;7.20;72.40
2539;DHT22;1280;49.760;9.664;2023-01-16T02:35:09;7.20;72.40
2539;DHT22;1280;49.760;9.664;2023-01-16T02:37:55;7.20;72.30
2539;DHT22;1280;49.760;9.664;2023-01-16T02:40:40;7.20;72.10
2539;DHT22;1280;49.760;9.664;2023-01-16T02:43:27;7.10;72.20
2539;DHT22;1280;49.760;9.664;2023-01-16T02:46:18;7.10;72.20
2539;DHT22;1280;49.760;9.664;2023-01-16T02:49:10;7.10;72.30
2539;DHT22;1280;49.760;9.664;2023-01-16T02:52:03;7.10;72.40
2539;DHT22;1280;49.760;9.664;2023-01-16T02:54:49;7.10;72.40
2539;DHT22;1280;49.760;9.664;2023-01-16T02:57:31;7.10;72.40
2539;DHT22;1280;49.760;9.664;2023-01-16T03:00:12;7.20;72.30
2539;DHT22;1280;49.760;9.664;2023-01-16T03:02:47;7.20;72.30
2539;DHT22;1280;49.760;9.664;2023-01-16T03:05:42;7.20;72.30
2539;DHT22;1280;49.760;9.664;2023-01-16T03:08:34;7.20;72.30
2539;DHT22;1280;49.760;9.664;2023-01-16T03:11:21;7.20;72.30
2539;DHT22;1280;49.760;9.664;2023-01-16T03:14:15;7.20;72.30
2539;DHT22;1280;49.760;9.664;2023-01-16T03:16:59;7.20;72.30
2539;DHT22;1280;49.760;9.664;2023-01-16T03:19:42;7.30;72.30
2539;DHT22;1280;49.760;9.664;2023-01-16T03:22:15;7.30;72.20
2539;DHT22;1280;49.760;9.664;2023-01-16T03:25:00;7.30;72.30
2539;DHT22;1280;49.760;9.664;2023-01-16T03:27:38;7.40;72.40
2539;DHT22;1280;49.760;9.664;2023-01-16T03:30:13;7.40;72.30
2539;DHT22;1280;49.760;9.664;2023-01-16T03:32:46;7.40;72.30
2539;DHT22;1280;49.760;9.664;2023-01-16T03:35:20;7.40;72.20
2539;DHT22;1280;49.760;9.664;2023-01-16T03:37:53;7.40;72.10
2539;DHT22;1280;49.760;9.664;2023-01-16T03:40:26;7.40;72.10
2539;DHT22;1280;49.760;9.664;2023-01-16T03:42:58;7.40;72.00
2539;DHT22;1280;49.760;9.664;2023-01-16T03:45:32;7.40;71.90
2539;DHT22;1280;49.760;9.664;2023-01-16T03:48:04;7.40;72.10
2539;DHT22;1280;49.760;9.664;2023-01-16T03:50:34;7.40;72.00
2539;DHT22;1280;49.760;9.664;2023-01-16T03:53:07;7.40;72.00
2539;DHT22;1280;49.760;9.664;2023-01-16T03:55:41;7.40;71.90
2539;DHT22;1280;49.760;9.664;2023-01-16T03:58:15;7.40;71.90
2539;DHT22;1280;49.760;9.664;2023-01-16T04:00:51;7.30;71.90
2539;DHT22;1280;49.760;9.664;2023-01-16T04:03:28;7.40;71.90
2539;DHT22;1280;49.760;9.664;2023-01-16T04:06:06;7.30;71.80
2539;DHT22;1280;49.760;9.664;2023-01-16T04:08:40;7.30;71.90
2539;DHT22;1280;49.760;9.664;2023-01-16T04:11:10;7.30;71.90
2539;DHT22;1280;49.760;9.664;2023-01-16T04:13:41;7.40;71.90
2539;DHT22;1280;49.760;9.664;2023-01-16T04:16:12;7.40;71.90
2539;DHT22;1280;49.760;9.664;2023-01-16T04:18:45;7.40;71.90
2539;DHT22;1280;49.760;9.664;2023-01-16T04:21:13;7.40;71.90
2539;DHT22;1280;49.760;9.664;2023-01-16T04:23:43;7.40;71.60
2539;DHT22;1280;49.760;9.664;2023-01-16T04:26:11;7.40;71.60
2539;DHT22;1280;49.760;9.664;2023-01-16T04:28:39;7.30;71.70
2539;DHT22;1280;49.760;9.664;2023-01-16T04:31:06;7.30;71.70
2539;DHT22;1280;49.760;9.664;2023-01-16T04:33:34;7.30;71.60
2539;DHT22;1280;49.760;9.664;2023-01-16T04:36:03;7.30;71.60
2539;DHT22;1280;49.760;9.664;2023-01-16T04:38:31;7.30;71.60
2539;DHT22;1280;49.760;9.664;2023-01-16T04:41:00;7.20;71.50
2539;DHT22;1280;49.760;9.664;2023-01-16T04:43:28;7.20;71.50
2539;DHT22;1280;49.760;9.664;2023-01-16T04:45:56;7.20;71.60
2539;DHT22;1280;49.760;9.664;2023-01-16T04:48:24;7.20;71.50
2539;DHT22;1280;49.760;9.664;2023-01-16T04:50:52;7.20;71.60
2539;DHT22;1280;49.760;9.664;2023-01-16T04:53:20;7.20;71.50
2539;DHT22;1280;49.760;9.664;2023-01-16T04:55:48;7.20;71.50
2539;DHT22;1280;49.760;9.664;2023-01-16T04:58:17;7.20;71.50
2539;DHT22;1280;49.760;9.664;2023-01-16T05:00:45;7.30;71.50
2539;DHT22;1280;49.760;9.664;2023-01-16T05:03:13;7.30;71.50
2539;DHT22;1280;49.760;9.664;2023-01-16T05:05:42;7.30;71.50
2539;DHT22;1280;49.760;9.664;2023-01-16T05:08:16;7.20;71.40
2539;DHT22;1280;49.760;9.664;2023-01-16T05:10:44;7.20;71.40
2539;DHT22;1280;49.760;9.664;2023-01-16T05:13:12;7.20;71.40
2539;DHT22;1280;49.760;9.664;2023-01-16T05:15:43;7.20;71.50
2539;DHT22;1280;49.760;9.664;2023-01-16T05:18:12;7.20;71.40
2539;DHT22;1280;49.760;9.664;2023-01-16T05:20:40;7.20;71.40
2539;DHT22;1280;49.760;9.664;2023-01-16T05:23:08;7.30;71.50
2539;DHT22;1280;49.760;9.664;2023-01-16T05:25:37;7.30;71.50
2539;DHT22;1280;49.760;9.664;2023-01-16T05:28:05;7.30;71.20
2539;DHT22;1280;49.760;9.664;2023-01-16T05:30:33;7.30;71.20
2539;DHT22;1280;49.760;9.664;2023-01-16T05:33:03;7.30;71.40
2539;DHT22;1280;49.760;9.664;2023-01-16T05:35:32;7.30;71.20
2539;DHT22;1280;49.760;9.664;2023-01-16T05:38:05;7.30;71.20
2539;DHT22;1280;49.760;9.664;2023-01-16T05:40:33;7.20;71.00
2539;DHT22;1280;49.760;9.664;2023-01-16T05:43:02;7.20;71.10
2539;DHT22;1280;49.760;9.664;2023-01-16T05:45:31;7.10;71.10
2539;DHT22;1280;49.760;9.664;2023-01-16T05:47:59;7.10;71.20
2539;DHT22;1280;49.760;9.664;2023-01-16T05:50:28;7.10;71.20
2539;DHT22;1280;49.760;9.664;2023-01-16T05:52:56;7.10;71.20
2539;DHT22;1280;49.760;9.664;2023-01-16T05:55:26;7.10;71.30
2539;DHT22;1280;49.760;9.664;2023-01-16T05:57:54;7.10;71.40
2539;DHT22;1280;49.760;9.664;2023-01-16T06:00:23;7.20;71.50
2539;DHT22;1280;49.760;9.664;2023-01-16T06:02:50;7.20;71.30
2539;DHT22;1280;49.760;9.664;2023-01-16T06:05:18;7.20;71.30
2539;DHT22;1280;49.760;9.664;2023-01-16T06:07:48;7.20;71.10
2539;DHT22;1280;49.760;9.664;2023-01-16T06:10:21;7.30;71.10
2539;DHT22;1280;49.760;9.664;2023-01-16T06:12:49;7.30;71.10
2539;DHT22;1280;49.760;9.664;2023-01-16T06:15:17;7.30;71.10
2539;DHT22;1280;49.760;9.664;2023-01-16T06:17:45;7.30;70.80
2539;DHT22;1280;49.760;9.664;2023-01-16T06:20:13;7.20;70.90
2539;DHT22;1280;49.760;9.664;2023-01-16T06:22:41;7.20;70.90
2539;DHT22;1280;49.760;9.664;2023-01-16T06:25:12;7.10;70.90
2539;DHT22;1280;49.760;9.664;2023-01-16T06:27:40;7.10;70.90
2539;DHT22;1280;49.760;9.664;2023-01-16T06:30:09;7.10;71.00
2539;DHT22;1280;49.760;9.664;2023-01-16T06:32:37;7.10;70.90
2539;DHT22;1280;49.760;9.664;2023-01-16T06:35:06;7.00;70.80
2539;DHT22;1280;49.760;9.664;2023-01-16T06:37:34;7.00;70.90
2539;DHT22;1280;49.760;9.664;2023-01-16T06:40:02;7.00;70.90
2539;DHT22;1280;49.760;9.664;2023-01-16T06:42:31;6.90;70.90
2539;DHT22;1280;49.760;9.664;2023-01-16T06:44:59;7.00;71.00
2539;DHT22;1280;49.760;9.664;2023-01-16T06:47:27;6.90;70.80
2539;DHT22;1280;49.760;9.664;2023-01-16T06:49:55;6.90;70.80
2539;DHT22;1280;49.760;9.664;2023-01-16T06:52:23;6.80;70.70
2539;DHT22;1280;49.760;9.664;2023-01-16T06:54:51;6.80;70.70
2539;DHT22;1280;49.760;9.664;2023-01-16T06:57:19;6.70;70.70
2539;DHT22;1280;49.760;9.664;2023-01-16T06:59:48;6.70;70.70
2539;DHT22;1280;49.760;9.664;2023-01-16T07:02:17;6.60;70.70
2539;DHT22;1280;49.760;9.664;2023-01-16T07:04:44;6.50;70.90
2539;DHT22;1280;49.760;9.664;2023-01-16T07:07:12;6.50;71.00
2539;DHT22;1280;49.760;9.664;2023-01-16T07:09:40;6.50;70.80
2539;DHT22;1280;49.760;9.664;2023-01-16T07:12:08;6.50;70.90
2539;DHT22;1280;49.760;9.664;2023-01-16T07:14:36;6.40;70.70
2539;DHT22;1280;49.760;9.664;2023-01-16T07:17:23;6.40;70.90
2539;DHT22;1280;49.760;9.664;2023-01-16T07:20:09;6.30;70.90
2539;DHT22;1280;49.760;9.664;2023-01-16T07:22:55;6.30;70.90
2539;DHT22;1280;49.760;9.664;2023-01-16T07:25:29;6.20;70.90
2539;DHT22;1280;49.760;9.664;2023-01-16T07:27:59;6.20;71.00
2539;DHT22;1280;49.760;9.664;2023-01-16T07:30:28;6.20;71.00
2539;DHT22;1280;49.760;9.664;2023-01-16T07:32:57;6.20;71.10
2539;DHT22;1280;49.760;9.664;2023-01-16T07:35:25;6.20;71.00
2539;DHT22;1280;49.760;9.664;2023-01-16T07:37:53;6.20;70.90
2539;DHT22;1280;49.760;9.664;2023-01-16T07:40:23;6.20;71.00
2539;DHT22;1280;49.760;9.664;2023-01-16T07:42:51;6.20;71.10
2539;DHT22;1280;49.760;9.664;2023-01-16T07:45:20;6.20;71.10
2539;DHT22;1280;49.760;9.664;2023-01-16T07:47:48;6.20;71.10
2539;DHT22;1280;49.760;9.664;2023-01-16T07:50:17;6.20;71.10
2539;DHT22;1280;49.760;9.664;2023-01-16T07:52:45;6.20;71.10
2539;DHT22;1280;49.760;9.664;2023-01-16T07:55:14;6.20;71.10
2539;DHT22;1280;49.760;9.664;2023-01-16T07:57:43;6.30;71.10
2539;DHT22;1280;49.760;9.664;2023-01-16T08:00:12;6.30;71.00
2539;DHT22;1280;49.760;9.664;2023-01-16T08:02:41;6.20;71.00
2539;DHT22;1280;49.760;9.664;2023-01-16T08:05:10;6.20;70.90
2539;DHT22;1280;49.760;9.664;2023-01-16T08:07:39;6.20;70.90
2539;DHT22;1280;49.760;9.664;2023-01-16T08:10:08;6.10;70.90
2539;DHT22;1280;49.760;9.664;2023-01-16T08:12:37;6.10;70.90
2539;DHT22;1280;49.760;9.664;2023-01-16T08:15:06;6.10;70.80
2539;DHT22;1280;49.760;9.664;2023-01-16T08:17:37;6.00;70.90
2539;DHT22;1280;49.760;9.664;2023-01-16T08:20:06;5.90;71.00
2539;DHT22;1280;49.760;9.664;2023-01-16T08:22:35;5.90;71.00
2539;DHT22;1280;49.760;9.664;2023-01-16T08:25:05;5.90;71.20
2539;DHT22;1280;49.760;9.664;2023-01-16T08:27:36;5.80;71.20
2539;DHT22;1280;49.760;9.664;2023-01-16T08:30:04;5.80;71.40
2539;DHT22;1280;49.760;9.664;2023-01-16T08:32:33;5.80;71.40
2539;DHT22;1280;49.760;9.664;2023-01-16T08:35:02;5.80;71.60
2539;DHT22;1280;49.760;9.664;2023-01-16T08:37:31;5.80;71.60
2539;DHT22;1280;49.760;9.664;2023-01-16T08:40:00;5.80;71.60
2539;DHT22;1280;49.760;9.664;2023-01-16T08:42:29;5.90;71.60
2539;DHT22;1280;49.760;9.664;2023-01-16T08:45:15;5.90;71.60
2539;DHT22;1280;49.760;9.664;2023-01-16T08:48:01;5.80;71.60
2539;DHT22;1280;49.760;9.664;2023-01-16T08:50:47;5.80;71.70
2539;DHT22;1280;49.760;9.664;2023-01-16T08:53:35;5.90;71.70
2539;DHT22;1280;49.760;9.664;2023-01-16T08:56:04;5.90;71.80
2539;DHT22;1280;49.760;9.664;2023-01-16T08:58:33;6.00;71.60
2539;DHT22;1280;49.760;9.664;2023-01-16T09:01:01;6.00;71.60
2539;DHT22;1280;49.760;9.664;2023-01-16T09:03:29;6.00;71.70
2539;DHT22;1280;49.760;9.664;2023-01-16T09:05:57;6.00;71.70
2539;DHT22;1280;49.760;9.664;2023-01-16T09:08:25;6.00;71.40
2539;DHT22;1280;49.760;9.664;2023-01-16T09:10:53;6.00;71.60
2539;DHT22;1280;49.760;9.664;2023-01-16T09:13:51;6.10;71.40
2539;DHT22;1280;49.760;9.664;2023-01-16T09:16:20;6.00;71.60
2539;DHT22;1280;49.760;9.664;2023-01-16T09:18:49;6.10;71.70
2539;DHT22;1280;49.760;9.664;2023-01-16T09:21:18;6.10;71.40
2539;DHT22;1280;49.760;9.664;2023-01-16T09:23:46;6.20;71.40
2539;DHT22;1280;49.760;9.664;2023-01-16T09:26:14;6.20;71.20
2539;DHT22;1280;49.760;9.664;2023-01-16T09:28:42;6.20;71.20
2539;DHT22;1280;49.760;9.664;2023-01-16T09:31:11;6.20;71.10
2539;DHT22;1280;49.760;9.664;2023-01-16T09:33:39;6.20;71.20
2539;DHT22;1280;49.760;9.664;2023-01-16T09:36:08;6.20;71.20
2539;DHT22;1280;49.760;9.664;2023-01-16T09:38:36;6.30;71.00
2539;DHT22;1280;49.760;9.664;2023-01-16T09:41:04;6.30;71.20
2539;DHT22;1280;49.760;9.664;2023-01-16T09:43:36;6.30;71.10
2539;DHT22;1280;49.760;9.664;2023-01-16T09:46:10;6.40;70.90
2539;DHT22;1280;49.760;9.664;2023-01-16T09:48:48;6.40;70.90
2539;DHT22;1280;49.760;9.664;2023-01-16T09:51:20;6.40;71.00
2539;DHT22;1280;49.760;9.664;2023-01-16T09:53:54;6.50;70.90
2539;DHT22;1280;49.760;9.664;2023-01-16T09:56:43;6.50;70.90
2539;DHT22;1280;49.760;9.664;2023-01-16T09:59:32;6.50;70.80
2539;DHT22;1280;49.760;9.664;2023-01-16T10:02:14;6.60;70.80
2539;DHT22;1280;49.760;9.664;2023-01-16T10:04:42;6.60;70.60
2539;DHT22;1280;49.760;9.664;2023-01-16T10:07:34;6.70;70.70
2539;DHT22;1280;49.760;9.664;2023-01-16T10:13:13;6.80;70.80
2539;DHT22;1280;49.760;9.664;2023-01-16T10:15:49;6.90;71.00
2539;DHT22;1280;49.760;9.664;2023-01-16T10:18:27;7.00;70.90
2539;DHT22;1280;49.760;9.664;2023-01-16T10:21:17;7.10;71.00
2539;DHT22;1280;49.760;9.664;2023-01-16T10:23:53;7.20;70.70
2539;DHT22;1280;49.760;9.664;2023-01-16T10:26:28;7.30;70.40
2539;DHT22;1280;49.760;9.664;2023-01-16T10:29:04;7.30;70.20
2539;DHT22;1280;49.760;9.664;2023-01-16T10:31:37;7.30;70.30
2539;DHT22;1280;49.760;9.664;2023-01-16T10:34:12;7.30;70.10
2539;DHT22;1280;49.760;9.664;2023-01-16T10:36:46;7.40;69.90
2539;DHT22;1280;49.760;9.664;2023-01-16T10:39:17;7.40;69.90
2539;DHT22;1280;49.760;9.664;2023-01-16T10:41:48;7.30;70.00
2539;DHT22;1280;49.760;9.664;2023-01-16T10:44:36;7.30;70.00
2539;DHT22;1280;49.760;9.664;2023-01-16T10:47:23;7.20;70.10
2539;DHT22;1280;49.760;9.664;2023-01-16T10:50:12;7.10;70.10
2539;DHT22;1280;49.760;9.664;2023-01-16T10:52:46;7.00;70.60
2539;DHT22;1280;49.760;9.664;2023-01-16T10:55:15;6.90;70.40
2539;DHT22;1280;49.760;9.664;2023-01-16T10:57:45;6.80;70.60
2539;DHT22;1280;49.760;9.664;2023-01-16T11:00:18;6.70;70.80
2539;DHT22;1280;49.760;9.664;2023-01-16T11:02:47;6.70;71.20
2539;DHT22;1280;49.760;9.664;2023-01-16T11:05:25;6.70;71.20
2539;DHT22;1280;49.760;9.664;2023-01-16T11:07:53;6.70;71.60
2539;DHT22;1280;49.760;9.664;2023-01-16T11:10:23;6.60;71.40
2539;DHT22;1280;49.760;9.664;2023-01-16T11:12:51;6.60;71.80
2539;DHT22;1280;49.760;9.664;2023-01-16T11:15:37;6.70;72.00
2539;DHT22;1280;49.760;9.664;2023-01-16T11:18:28;6.60;72.10
2539;DHT22;1280;49.760;9.664;2023-01-16T11:20:59;6.60;72.10
2539;DHT22;1280;49.760;9.664;2023-01-16T11:23:36;6.60;72.20
2539;DHT22;1280;49.760;9.664;2023-01-16T11:26:06;6.50;72.20
2539;DHT22;1280;49.760;9.664;2023-01-16T11:28:35;6.40;72.70
2539;DHT22;1280;49.760;9.664;2023-01-16T11:31:09;6.30;72.80
2539;DHT22;1280;49.760;9.664;2023-01-16T11:33:42;6.30;73.40
2539;DHT22;1280;49.760;9.664;2023-01-16T11:36:15;6.20;73.30
2539;DHT22;1280;49.760;9.664;2023-01-16T11:38:46;6.20;73.80
2539;DHT22;1280;49.760;9.664;2023-01-16T11:41:18;6.20;73.80
2539;DHT22;1280;49.760;9.664;2023-01-16T11:43:54;6.20;74.00
2539;DHT22;1280;49.760;9.664;2023-01-16T11:46:50;6.20;73.90
2539;DHT22;1280;49.760;9.664;2023-01-16T11:49:25;6.20;74.10
2539;DHT22;1280;49.760;9.664;2023-01-16T11:51:58;6.20;74.30
2539;DHT22;1280;49.760;9.664;2023-01-16T11:54:31;6.30;74.60
2539;DHT22;1280;49.760;9.664;2023-01-16T11:57:09;6.30;74.50
2539;DHT22;1280;49.760;9.664;2023-01-16T11:59:49;6.40;74.60
2539;DHT22;1280;49.760;9.664;2023-01-16T12:02:36;6.40;74.60
2539;DHT22;1280;49.760;9.664;2023-01-16T12:05:14;6.40;74.70
2539;DHT22;1280;49.760;9.664;2023-01-16T12:08:16;6.40;74.80
2539;DHT22;1280;49.760;9.664;2023-01-16T12:10:55;6.50;74.80
2539;DHT22;1280;49.760;9.664;2023-01-16T12:13:30;6.50;75.20
2539;DHT22;1280;49.760;9.664;2023-01-16T12:16:39;6.60;75.10
2539;DHT22;1280;49.760;9.664;2023-01-16T12:19:28;6.50;74.90
2539;DHT22;1280;49.760;9.664;2023-01-16T12:22:04;6.50;75.10
2539;DHT22;1280;49.760;9.664;2023-01-16T12:24:42;6.50;75.10
2539;DHT22;1280;49.760;9.664;2023-01-16T12:27:29;6.60;75.40
2539;DHT22;1280;49.760;9.664;2023-01-16T12:30:09;6.50;75.30
2539;DHT22;1280;49.760;9.664;2023-01-16T12:32:51;6.40;75.20
2539;DHT22;1280;49.760;9.664;2023-01-16T12:35:30;6.40;75.40
2539;DHT22;1280;49.760;9.664;2023-01-16T12:38:12;6.40;75.60
2539;DHT22;1280;49.760;9.664;2023-01-16T12:41:11;6.40;75.80
2539;DHT22;1280;49.760;9.664;2023-01-16T12:44:15;6.40;75.80
2539;DHT22;1280;49.760;9.664;2023-01-16T12:46:54;6.30;75.80
2539;DHT22;1280;49.760;9.664;2023-01-16T12:49:36;6.30;75.80
2539;DHT22;1280;49.760;9.664;2023-01-16T12:52:26;6.20;76.20
2539;DHT22;1280;49.760;9.664;2023-01-16T12:55:13;6.20;76.00
2539;DHT22;1280;49.760;9.664;2023-01-16T12:57:57;6.20;76.20
2539;DHT22;1280;49.760;9.664;2023-01-16T13:00:31;6.20;76.40
2539;DHT22;1280;49.760;9.664;2023-01-16T13:03:13;6.20;76.70
2539;DHT22;1280;49.760;9.664;2023-01-16T13:05:43;6.10;77.00
2539;DHT22;1280;49.760;9.664;2023-01-16T13:08:17;6.10;76.50
2539;DHT22;1280;49.760;9.664;2023-01-16T13:10:50;6.20;76.70
2539;DHT22;1280;49.760;9.664;2023-01-16T13:13:44;6.20;76.90
2539;DHT22;1280;49.760;9.664;2023-01-16T13:16:22;6.30;77.00
2539;DHT22;1280;49.760;9.664;2023-01-16T13:18:56;6.40;76.90
2539;DHT22;1280;49.760;9.664;2023-01-16T13:21:27;6.40;77.10
2539;DHT22;1280;49.760;9.664;2023-01-16T13:24:00;6.50;76.90
2539;DHT22;1280;49.760;9.664;2023-01-16T13:26:31;6.40;76.90
2539;DHT22;1280;49.760;9.664;2023-01-16T13:29:06;6.40;77.00
2539;DHT22;1280;49.760;9.664;2023-01-16T13:31:38;6.50;77.40
2539;DHT22;1280;49.760;9.664;2023-01-16T13:34:13;6.60;77.20
2539;DHT22;1280;49.760;9.664;2023-01-16T13:37:26;6.60;77.10
2539;DHT22;1280;49.760;9.664;2023-01-16T13:40:18;6.70;77.00
2539;DHT22;1280;49.760;9.664;2023-01-16T13:42:55;6.70;77.20
2539;DHT22;1280;49.760;9.664;2023-01-16T13:45:46;6.70;77.10
2539;DHT22;1280;49.760;9.664;2023-01-16T13:48:19;6.80;77.00
2539;DHT22;1280;49.760;9.664;2023-01-16T13:50:52;6.80;77.00
2539;DHT22;1280;49.760;9.664;2023-01-16T13:53:26;6.80;77.00
2539;DHT22;1280;49.760;9.664;2023-01-16T13:56:07;6.80;76.90
2539;DHT22;1280;49.760;9.664;2023-01-16T13:58:41;6.80;76.90
2539;DHT22;1280;49.760;9.664;2023-01-16T14:01:36;6.70;76.80
2539;DHT22;1280;49.760;9.664;2023-01-16T14:04:28;6.70;77.00
2539;DHT22;1280;49.760;9.664;2023-01-16T14:06:57;6.80;77.00
2539;DHT22;1280;49.760;9.664;2023-01-16T14:10:07;6.80;77.00
2539;DHT22;1280;49.760;9.664;2023-01-16T14:12:58;6.80;76.90
2539;DHT22;1280;49.760;9.664;2023-01-16T14:15:47;6.80;76.80
2539;DHT22;1280;49.760;9.664;2023-01-16T14:18:43;6.80;76.90
2539;DHT22;1280;49.760;9.664;2023-01-16T14:21:41;6.70;77.00
2539;DHT22;1280;49.760;9.664;2023-01-16T14:24:16;6.80;77.10
2539;DHT22;1280;49.760;9.664;2023-01-16T14:26:48;6.80;76.80
2539;DHT22;1280;49.760;9.664;2023-01-16T14:29:20;6.90;76.80
2539;DHT22;1280;49.760;9.664;2023-01-16T14:31:55;6.90;76.90
2539;DHT22;1280;49.760;9.664;2023-01-16T14:34:29;6.90;76.80
2539;DHT22;1280;49.760;9.664;2023-01-16T14:37:03;6.90;76.80
2539;DHT22;1280;49.760;9.664;2023-01-16T14:39:33;6.90;76.60
2539;DHT22;1280;49.760;9.664;2023-01-16T14:42:05;6.90;76.80
2539;DHT22;1280;49.760;9.664;2023-01-16T14:44:59;7.00;76.70
2539;DHT22;1280;49.760;9.664;2023-01-16T14:47:46;6.90;76.70
2539;DHT22;1280;49.760;9.664;2023-01-16T14:50:50;7.00;76.70
2539;DHT22;1280;49.760;9.664;2023-01-16T14:53:37;7.00;76.60
2539;DHT22;1280;49.760;9.664;2023-01-16T14:56:26;7.00;76.30
2539;DHT22;1280;49.760;9.664;2023-01-16T14:58:59;7.00;76.30
2539;DHT22;1280;49.760;9.664;2023-01-16T15:01:34;7.00;76.30
2539;DHT22;1280;49.760;9.664;2023-01-16T15:04:22;7.00;76.40
2539;DHT22;1280;49.760;9.664;2023-01-16T15:06:56;7.10;76.30
2539;DHT22;1280;49.760;9.664;2023-01-16T15:09:28;7.10;76.10
2539;DHT22;1280;49.760;9.664;2023-01-16T15:11:58;7.10;76.10
2539;DHT22;1280;49.760;9.664;2023-01-16T15:14:27;7.10;76.10
2539;DHT22;1280;49.760;9.664;2023-01-16T15:17:08;7.10;76.10
2539;DHT22;1280;49.760;9.664;2023-01-16T15:20:21;7.10;75.80
2539;DHT22;1280;49.760;9.664;2023-01-16T15:23:20;7.10;75.90
2539;DHT22;1280;49.760;9.664;2023-01-16T15:25:58;7.10;76.00
2539;DHT22;1280;49.760;9.664;2023-01-16T15:28:35;7.10;75.90
2539;DHT22;1280;49.760;9.664;2023-01-16T15:31:09;7.10;75.80
2539;DHT22;1280;49.760;9.664;2023-01-16T15:33:39;7.20;75.60
2539;DHT22;1280;49.760;9.664;2023-01-16T15:36:17;7.20;75.70
2539;DHT22;1280;49.760;9.664;2023-01-16T15:38:48;7.20;75.60
2539;DHT22;1280;49.760;9.664;2023-01-16T15:41:20;7.20;75.50
2539;DHT22;1280;49.760;9.664;2023-01-16T15:44:11;7.10;75.40
2539;DHT22;1280;49.760;9.664;2023-01-16T15:47:09;7.10;75.50
2539;DHT22;1280;49.760;9.664;2023-01-16T15:49:47;7.10;75.50
2539;DHT22;1280;49.760;9.664;2023-01-16T15:52:16;7.20;75.50
2539;DHT22;1280;49.760;9.664;2023-01-16T15:54:46;7.20;75.30
2539;DHT22;1280;49.760;9.664;2023-01-16T15:57:16;7.10;75.10
2539;DHT22;1280;49.760;9.664;2023-01-16T15:59:50;7.20;75.30
2539;DHT22;1280;49.760;9.664;2023-01-16T16:02:21;7.20;75.20
2539;DHT22;1280;49.760;9.664;2023-01-16T16:04:53;7.20;75.10
2539;DHT22;1280;49.760;9.664;2023-01-16T16:07:22;7.20;75.10
2539;DHT22;1280;49.760;9.664;2023-01-16T16:09:53;7.20;75.10
2539;DHT22;1280;49.760;9.664;2023-01-16T16:12:22;7.30;75.20
2539;DHT22;1280;49.760;9.664;2023-01-16T16:15:13;7.30;75.10
2539;DHT22;1280;49.760;9.664;2023-01-16T16:18:01;7.30;74.80
2539;DHT22;1280;49.760;9.664;2023-01-16T16:20:33;7.40;74.80
2539;DHT22;1280;49.760;9.664;2023-01-16T16:23:04;7.40;74.80
2539;DHT22;1280;49.760;9.664;2023-01-16T16:25:36;7.40;74.90
2539;DHT22;1280;49.760;9.664;2023-01-16T16:28:17;7.50;74.80
2539;DHT22;1280;49.760;9.664;2023-01-16T16:30:45;7.50;74.70
2539;DHT22;1280;49.760;9.664;2023-01-16T16:33:16;7.60;74.60
2539;DHT22;1280;49.760;9.664;2023-01-16T16:35:48;7.60;74.80
2539;DHT22;1280;49.760;9.664;2023-01-16T16:38:22;7.70;74.80
2539;DHT22;1280;49.760;9.664;2023-01-16T16:43:56;7.80;74.50
2539;DHT22;1280;49.760;9.664;2023-01-16T16:46:31;7.90;74.50
2539;DHT22;1280;49.760;9.664;2023-01-16T16:49:28;7.90;74.00
2539;DHT22;1280;49.760;9.664;2023-01-16T16:55:00;7.90;73.90
2539;DHT22;1280;49.760;9.664;2023-01-16T16:57:38;7.90;73.90
2539;DHT22;1280;49.760;9.664;2023-01-16T17:00:15;7.80;74.00
2539;DHT22;1280;49.760;9.664;2023-01-16T17:02:46;7.80;74.10
2539;DHT22;1280;49.760;9.664;2023-01-16T17:05:16;7.80;74.20
2539;DHT22;1280;49.760;9.664;2023-01-16T17:07:46;7.80;74.30
2539;DHT22;1280;49.760;9.664;2023-01-16T17:10:17;7.80;74.30
2539;DHT22;1280;49.760;9.664;2023-01-16T17:12:46;7.80;74.30
2539;DHT22;1280;49.760;9.664;2023-01-16T17:15:14;7.70;74.40
2539;DHT22;1280;49.760;9.664;2023-01-16T17:17:43;7.70;74.40
2539;DHT22;1280;49.760;9.664;2023-01-16T17:20:14;7.70;74.60
2539;DHT22;1280;49.760;9.664;2023-01-16T17:22:43;7.60;74.50